sensor_id;sensor_type;location;lat;lon;timestamp;P1;durP1;ratioP1;P2;durP2;ratioP2
60076;SDS011;45950;45.208;20.374;2024-02-21T00:01:12;13.88;;;9.55;;
60076;SDS011;45950;45.208;20.374;2024-02-21T00:03:40;16.52;;;10.23;;
60076;SDS011;45950;45.208;20.374;2024-02-21T00:08:59;17.42;;;9.15;;
60076;SDS011;45950;45.208;20.374;2024-02-21T00:11:26;14.07;;;9.05;;
60076;SDS011;45950;45.208;20.374;2024-02-21T00:13:57;15.32;;;9.48;;
60076;SDS011;45950;45.208;20.374;2024-02-21T00:16:25;15.10;;;10.38;;
60076;SDS011;45950;45.208;20.374;2024-02-21T00:18:52;14.25;;;9.63;;
60076;SDS011;45950;45.208;20.374;2024-02-21T00:21:19;13.35;;;8.88;;
60076;SDS011;45950;45.208;20.374;2024-02-21T00:23:45;14.75;;;9.23;;
60076;SDS011;45950;45.208;20.374;2024-02-21T00:26:12;13.45;;;9.30;;
60076;SDS011;45950;45.208;20.374;2024-02-21T00:28:38;16.05;;;9.88;;
60076;SDS011;45950;45.208;20.374;2024-02-21T00:31:05;13.18;;;8.73;;
60076;SDS011;45950;45.208;20.374;2024-02-21T00:33:33;15.50;;;9.50;;
60076;SDS011;45950;45.208;20.374;2024-02-21T00:36:00;12.40;;;8.30;;
60076;SDS011;45950;45.208;20.374;2024-02-21T00:38:26;14.05;;;9.07;;
60076;SDS011;45950;45.208;20.374;2024-02-21T00:40:53;15.88;;;9.70;;
60076;SDS011;45950;45.208;20.374;2024-02-21T00:43:19;16.63;;;8.35;;
60076;SDS011;45950;45.208;20.374;2024-02-21T00:45:48;17.83;;;9.98;;
60076;SDS011;45950;45.208;20.374;2024-02-21T00:48:15;15.77;;;9.30;;
60076;SDS011;45950;45.208;20.374;2024-02-21T00:50:43;15.60;;;9.55;;
60076;SDS011;45950;45.208;20.374;2024-02-21T00:56:08;20.35;;;11.18;;
60076;SDS011;45950;45.208;20.374;2024-02-21T00:58:34;18.23;;;12.02;;
60076;SDS011;45950;45.208;20.374;2024-02-21T01:01:03;16.63;;;10.43;;
60076;SDS011;45950;45.208;20.374;2024-02-21T01:03:30;16.88;;;10.02;;
60076;SDS011;45950;45.208;20.374;2024-02-21T01:05:58;13.85;;;9.90;;
60076;SDS011;45950;45.208;20.374;2024-02-21T01:08:24;21.52;;;10.05;;
60076;SDS011;45950;45.208;20.374;2024-02-21T01:10:51;14.85;;;9.35;;
60076;SDS011;45950;45.208;20.374;2024-02-21T01:13:19;17.90;;;10.57;;
60076;SDS011;45950;45.208;20.374;2024-02-21T01:15:45;14.27;;;9.50;;
60076;SDS011;45950;45.208;20.374;2024-02-21T01:18:12;15.98;;;9.05;;
60076;SDS011;45950;45.208;20.374;2024-02-21T01:20:39;15.98;;;10.77;;
60076;SDS011;45950;45.208;20.374;2024-02-21T01:23:07;15.27;;;8.82;;
60076;SDS011;45950;45.208;20.374;2024-02-21T01:25:34;16.33;;;10.55;;
60076;SDS011;45950;45.208;20.374;2024-02-21T01:28:02;15.80;;;9.23;;
60076;SDS011;45950;45.208;20.374;2024-02-21T01:30:28;14.57;;;9.93;;
60076;SDS011;45950;45.208;20.374;2024-02-21T01:32:55;15.55;;;9.38;;
60076;SDS011;45950;45.208;20.374;2024-02-21T01:35:21;17.25;;;9.32;;
60076;SDS011;45950;45.208;20.374;2024-02-21T01:37:48;15.75;;;10.10;;
60076;SDS011;45950;45.208;20.374;2024-02-21T01:40:18;18.65;;;10.02;;
60076;SDS011;45950;45.208;20.374;2024-02-21T01:42:44;15.07;;;10.15;;
60076;SDS011;45950;45.208;20.374;2024-02-21T01:45:13;14.63;;;9.48;;
60076;SDS011;45950;45.208;20.374;2024-02-21T01:47:39;15.15;;;9.52;;
60076;SDS011;45950;45.208;20.374;2024-02-21T01:50:06;14.82;;;10.07;;
60076;SDS011;45950;45.208;20.374;2024-02-21T01:52:33;16.73;;;10.57;;
60076;SDS011;45950;45.208;20.374;2024-02-21T01:58:02;13.90;;;8.10;;
60076;SDS011;45950;45.208;20.374;2024-02-21T02:00:28;15.48;;;9.27;;
60076;SDS011;45950;45.208;20.374;2024-02-21T02:02:55;14.25;;;8.73;;
60076;SDS011;45950;45.208;20.374;2024-02-21T02:05:23;17.48;;;11.27;;
60076;SDS011;45950;45.208;20.374;2024-02-21T02:07:49;15.30;;;9.43;;
60076;SDS011;45950;45.208;20.374;2024-02-21T02:10:16;14.70;;;10.05;;
60076;SDS011;45950;45.208;20.374;2024-02-21T02:12:42;16.55;;;11.05;;
60076;SDS011;45950;45.208;20.374;2024-02-21T02:15:11;15.48;;;10.63;;
60076;SDS011;45950;45.208;20.374;2024-02-21T02:17:37;15.35;;;10.48;;
60076;SDS011;45950;45.208;20.374;2024-02-21T02:20:04;16.80;;;9.77;;
60076;SDS011;45950;45.208;20.374;2024-02-21T02:22:31;15.18;;;10.27;;
60076;SDS011;45950;45.208;20.374;2024-02-21T02:25:00;14.65;;;9.40;;
60076;SDS011;45950;45.208;20.374;2024-02-21T02:27:26;15.85;;;9.20;;
60076;SDS011;45950;45.208;20.374;2024-02-21T02:29:54;19.27;;;11.93;;
60076;SDS011;45950;45.208;20.374;2024-02-21T02:32:21;15.68;;;10.32;;
60076;SDS011;45950;45.208;20.374;2024-02-21T02:34:47;16.73;;;9.95;;
60076;SDS011;45950;45.208;20.374;2024-02-21T02:37:14;17.15;;;11.05;;
60076;SDS011;45950;45.208;20.374;2024-02-21T02:39:40;19.58;;;11.63;;
60076;SDS011;45950;45.208;20.374;2024-02-21T02:42:08;20.42;;;12.90;;
60076;SDS011;45950;45.208;20.374;2024-02-21T02:44:35;21.92;;;12.85;;
60076;SDS011;45950;45.208;20.374;2024-02-21T02:47:01;18.15;;;11.43;;
60076;SDS011;45950;45.208;20.374;2024-02-21T02:49:28;17.73;;;12.35;;
60076;SDS011;45950;45.208;20.374;2024-02-21T02:51:55;16.88;;;11.10;;
60076;SDS011;45950;45.208;20.374;2024-02-21T02:54:21;20.00;;;13.32;;
60076;SDS011;45950;45.208;20.374;2024-02-21T02:56:49;18.77;;;11.88;;
60076;SDS011;45950;45.208;20.374;2024-02-21T02:59:17;20.02;;;12.98;;
60076;SDS011;45950;45.208;20.374;2024-02-21T03:01:44;22.52;;;13.65;;
60076;SDS011;45950;45.208;20.374;2024-02-21T03:04:10;27.90;;;13.80;;
60076;SDS011;45950;45.208;20.374;2024-02-21T03:06:37;27.52;;;15.15;;
60076;SDS011;45950;45.208;20.374;2024-02-21T03:09:03;25.75;;;13.85;;
60076;SDS011;45950;45.208;20.374;2024-02-21T03:11:33;21.38;;;12.65;;
60076;SDS011;45950;45.208;20.374;2024-02-21T03:14:02;23.70;;;14.57;;
60076;SDS011;45950;45.208;20.374;2024-02-21T03:16:30;18.73;;;10.80;;
60076;SDS011;45950;45.208;20.374;2024-02-21T03:18:56;23.30;;;11.18;;
60076;SDS011;45950;45.208;20.374;2024-02-21T03:21:29;19.38;;;11.20;;
60076;SDS011;45950;45.208;20.374;2024-02-21T03:23:56;16.98;;;10.20;;
60076;SDS011;45950;45.208;20.374;2024-02-21T03:26:22;22.60;;;12.80;;
60076;SDS011;45950;45.208;20.374;2024-02-21T03:28:49;26.85;;;16.38;;
60076;SDS011;45950;45.208;20.374;2024-02-21T03:31:15;17.88;;;12.40;;
60076;SDS011;45950;45.208;20.374;2024-02-21T03:33:43;23.50;;;15.15;;
60076;SDS011;45950;45.208;20.374;2024-02-21T03:36:12;18.80;;;11.35;;
60076;SDS011;45950;45.208;20.374;2024-02-21T03:38:39;19.67;;;13.98;;
60076;SDS011;45950;45.208;20.374;2024-02-21T03:41:06;59.83;;;35.53;;
60076;SDS011;45950;45.208;20.374;2024-02-21T03:43:32;72.72;;;42.15;;
60076;SDS011;45950;45.208;20.374;2024-02-21T03:45:59;30.77;;;20.85;;
60076;SDS011;45950;45.208;20.374;2024-02-21T03:48:26;22.90;;;14.85;;
60076;SDS011;45950;45.208;20.374;2024-02-21T03:50:54;18.98;;;11.40;;
60076;SDS011;45950;45.208;20.374;2024-02-21T03:53:21;19.02;;;11.45;;
60076;SDS011;45950;45.208;20.374;2024-02-21T03:55:47;18.35;;;11.77;;
60076;SDS011;45950;45.208;20.374;2024-02-21T03:58:14;17.10;;;11.70;;
60076;SDS011;45950;45.208;20.374;2024-02-21T04:00:55;16.85;;;10.77;;
60076;SDS011;45950;45.208;20.374;2024-02-21T04:03:21;15.95;;;10.20;;
60076;SDS011;45950;45.208;20.374;2024-02-21T04:05:48;17.58;;;12.10;;
60076;SDS011;45950;45.208;20.374;2024-02-21T04:08:17;16.98;;;11.10;;
60076;SDS011;45950;45.208;20.374;2024-02-21T04:10:43;12.73;;;8.10;;
60076;SDS011;45950;45.208;20.374;2024-02-21T04:13:10;13.25;;;9.18;;
60076;SDS011;45950;45.208;20.374;2024-02-21T04:15:37;13.13;;;8.30;;
60076;SDS011;45950;45.208;20.374;2024-02-21T04:18:03;11.07;;;8.07;;
60076;SDS011;45950;45.208;20.374;2024-02-21T04:20:30;13.13;;;7.60;;
60076;SDS011;45950;45.208;20.374;2024-02-21T04:22:57;12.95;;;9.13;;
60076;SDS011;45950;45.208;20.374;2024-02-21T04:25:25;17.35;;;10.05;;
60076;SDS011;45950;45.208;20.374;2024-02-21T04:28:05;13.82;;;8.68;;
60076;SDS011;45950;45.208;20.374;2024-02-21T04:30:31;15.65;;;8.23;;
60076;SDS011;45950;45.208;20.374;2024-02-21T04:32:58;11.73;;;7.75;;
60076;SDS011;45950;45.208;20.374;2024-02-21T04:38:20;9.75;;;6.57;;
60076;SDS011;45950;45.208;20.374;2024-02-21T04:40:48;9.43;;;6.68;;
60076;SDS011;45950;45.208;20.374;2024-02-21T04:43:18;10.80;;;6.15;;
60076;SDS011;45950;45.208;20.374;2024-02-21T04:45:44;10.68;;;6.65;;
60076;SDS011;45950;45.208;20.374;2024-02-21T04:48:11;8.65;;;6.43;;
60076;SDS011;45950;45.208;20.374;2024-02-21T04:50:37;10.35;;;6.43;;
60076;SDS011;45950;45.208;20.374;2024-02-21T04:53:04;12.07;;;8.13;;
60076;SDS011;45950;45.208;20.374;2024-02-21T04:55:31;11.82;;;7.28;;
60076;SDS011;45950;45.208;20.374;2024-02-21T05:01:01;11.68;;;7.88;;
60076;SDS011;45950;45.208;20.374;2024-02-21T05:03:28;11.88;;;6.88;;
60076;SDS011;45950;45.208;20.374;2024-02-21T05:05:54;11.05;;;7.05;;
60076;SDS011;45950;45.208;20.374;2024-02-21T05:08:21;11.02;;;6.65;;
60076;SDS011;45950;45.208;20.374;2024-02-21T05:10:47;12.43;;;8.00;;
60076;SDS011;45950;45.208;20.374;2024-02-21T05:13:14;9.95;;;6.88;;
60076;SDS011;45950;45.208;20.374;2024-02-21T05:15:41;22.75;;;14.43;;
60076;SDS011;45950;45.208;20.374;2024-02-21T05:18:09;17.85;;;10.73;;
60076;SDS011;45950;45.208;20.374;2024-02-21T05:20:35;15.35;;;10.27;;
60076;SDS011;45950;45.208;20.374;2024-02-21T05:23:02;11.27;;;7.20;;
60076;SDS011;45950;45.208;20.374;2024-02-21T05:25:28;13.45;;;10.13;;
60076;SDS011;45950;45.208;20.374;2024-02-21T05:28:02;12.60;;;9.38;;
60076;SDS011;45950;45.208;20.374;2024-02-21T05:30:31;11.60;;;8.63;;
60076;SDS011;45950;45.208;20.374;2024-02-21T05:32:57;10.23;;;7.30;;
60076;SDS011;45950;45.208;20.374;2024-02-21T05:35:28;10.48;;;7.10;;
60076;SDS011;45950;45.208;20.374;2024-02-21T05:37:55;9.65;;;6.97;;
60076;SDS011;45950;45.208;20.374;2024-02-21T05:40:22;11.63;;;7.32;;
60076;SDS011;45950;45.208;20.374;2024-02-21T05:42:48;9.63;;;6.63;;
60076;SDS011;45950;45.208;20.374;2024-02-21T05:45:16;11.40;;;5.93;;
60076;SDS011;45950;45.208;20.374;2024-02-21T05:47:42;9.23;;;6.68;;
60076;SDS011;45950;45.208;20.374;2024-02-21T05:50:09;9.23;;;5.70;;
60076;SDS011;45950;45.208;20.374;2024-02-21T05:52:37;8.73;;;6.22;;
60076;SDS011;45950;45.208;20.374;2024-02-21T05:55:10;8.25;;;5.45;;
60076;SDS011;45950;45.208;20.374;2024-02-21T05:57:37;8.60;;;6.20;;
60076;SDS011;45950;45.208;20.374;2024-02-21T06:00:14;7.93;;;4.82;;
60076;SDS011;45950;45.208;20.374;2024-02-21T06:02:41;6.55;;;4.90;;
60076;SDS011;45950;45.208;20.374;2024-02-21T06:05:08;8.55;;;5.80;;
60076;SDS011;45950;45.208;20.374;2024-02-21T06:10:38;6.95;;;4.32;;
60076;SDS011;45950;45.208;20.374;2024-02-21T06:13:05;8.63;;;5.65;;
60076;SDS011;45950;45.208;20.374;2024-02-21T06:15:31;9.70;;;5.22;;
60076;SDS011;45950;45.208;20.374;2024-02-21T06:18:08;11.80;;;5.72;;
60076;SDS011;45950;45.208;20.374;2024-02-21T06:20:35;8.27;;;5.75;;
60076;SDS011;45950;45.208;20.374;2024-02-21T06:23:04;13.98;;;7.60;;
60076;SDS011;45950;45.208;20.374;2024-02-21T06:25:31;16.33;;;8.70;;
60076;SDS011;45950;45.208;20.374;2024-02-21T06:31:06;14.65;;;8.02;;
60076;SDS011;45950;45.208;20.374;2024-02-21T06:33:32;22.75;;;11.63;;
60076;SDS011;45950;45.208;20.374;2024-02-21T06:35:59;21.40;;;10.98;;
60076;SDS011;45950;45.208;20.374;2024-02-21T06:38:25;13.55;;;7.68;;
60076;SDS011;45950;45.208;20.374;2024-02-21T06:40:52;14.95;;;8.43;;
60076;SDS011;45950;45.208;20.374;2024-02-21T06:43:20;14.07;;;8.30;;
60076;SDS011;45950;45.208;20.374;2024-02-21T06:45:47;17.33;;;9.98;;
60076;SDS011;45950;45.208;20.374;2024-02-21T06:48:17;13.63;;;8.68;;
60076;SDS011;45950;45.208;20.374;2024-02-21T06:50:44;9.13;;;6.40;;
60076;SDS011;45950;45.208;20.374;2024-02-21T06:53:11;8.50;;;5.93;;
60076;SDS011;45950;45.208;20.374;2024-02-21T06:55:37;8.60;;;5.70;;
60076;SDS011;45950;45.208;20.374;2024-02-21T06:58:04;14.18;;;8.80;;
60076;SDS011;45950;45.208;20.374;2024-02-21T07:00:33;10.15;;;6.53;;
60076;SDS011;45950;45.208;20.374;2024-02-21T07:03:00;7.90;;;4.90;;
60076;SDS011;45950;45.208;20.374;2024-02-21T07:05:29;8.48;;;5.10;;
60076;SDS011;45950;45.208;20.374;2024-02-21T07:07:55;7.88;;;4.47;;
60076;SDS011;45950;45.208;20.374;2024-02-21T07:10:22;8.20;;;4.78;;
60076;SDS011;45950;45.208;20.374;2024-02-21T07:13:01;8.77;;;5.03;;
60076;SDS011;45950;45.208;20.374;2024-02-21T07:15:28;7.10;;;4.03;;
60076;SDS011;45950;45.208;20.374;2024-02-21T07:17:56;10.02;;;4.88;;
60076;SDS011;45950;45.208;20.374;2024-02-21T07:20:24;5.28;;;3.80;;
60076;SDS011;45950;45.208;20.374;2024-02-21T07:22:52;8.45;;;4.07;;
60076;SDS011;45950;45.208;20.374;2024-02-21T07:25:19;7.90;;;5.10;;
60076;SDS011;45950;45.208;20.374;2024-02-21T07:27:45;6.65;;;4.72;;
60076;SDS011;45950;45.208;20.374;2024-02-21T07:30:21;7.47;;;4.68;;
60076;SDS011;45950;45.208;20.374;2024-02-21T07:32:48;7.68;;;5.28;;
60076;SDS011;45950;45.208;20.374;2024-02-21T07:35:15;11.70;;;6.40;;
60076;SDS011;45950;45.208;20.374;2024-02-21T07:37:41;6.47;;;4.13;;
60076;SDS011;45950;45.208;20.374;2024-02-21T07:40:13;6.90;;;4.30;;
60076;SDS011;45950;45.208;20.374;2024-02-21T07:42:57;9.80;;;4.82;;
60076;SDS011;45950;45.208;20.374;2024-02-21T07:45:24;7.93;;;4.53;;
60076;SDS011;45950;45.208;20.374;2024-02-21T07:47:50;9.45;;;5.05;;
60076;SDS011;45950;45.208;20.374;2024-02-21T07:50:17;8.23;;;4.43;;
60076;SDS011;45950;45.208;20.374;2024-02-21T07:52:43;8.48;;;4.40;;
60076;SDS011;45950;45.208;20.374;2024-02-21T07:55:10;6.47;;;4.53;;
60076;SDS011;45950;45.208;20.374;2024-02-21T07:57:38;6.95;;;4.05;;
60076;SDS011;45950;45.208;20.374;2024-02-21T08:00:05;7.85;;;4.30;;
60076;SDS011;45950;45.208;20.374;2024-02-21T08:02:34;7.65;;;4.10;;
60076;SDS011;45950;45.208;20.374;2024-02-21T08:05:02;7.00;;;4.05;;
60076;SDS011;45950;45.208;20.374;2024-02-21T08:07:29;7.30;;;3.88;;
60076;SDS011;45950;45.208;20.374;2024-02-21T08:09:56;10.73;;;4.88;;
60076;SDS011;45950;45.208;20.374;2024-02-21T08:12:22;5.07;;;3.42;;
60076;SDS011;45950;45.208;20.374;2024-02-21T08:14:50;7.78;;;3.80;;
60076;SDS011;45950;45.208;20.374;2024-02-21T08:17:17;16.55;;;8.88;;
60076;SDS011;45950;45.208;20.374;2024-02-21T08:19:43;9.18;;;4.80;;
60076;SDS011;45950;45.208;20.374;2024-02-21T08:22:10;7.32;;;4.45;;
60076;SDS011;45950;45.208;20.374;2024-02-21T08:24:37;8.82;;;2.92;;
60076;SDS011;45950;45.208;20.374;2024-02-21T08:27:04;6.15;;;3.30;;
60076;SDS011;45950;45.208;20.374;2024-02-21T08:29:31;9.32;;;5.10;;
60076;SDS011;45950;45.208;20.374;2024-02-21T08:31:59;12.80;;;7.13;;
60076;SDS011;45950;45.208;20.374;2024-02-21T08:34:25;8.02;;;4.03;;
60076;SDS011;45950;45.208;20.374;2024-02-21T08:36:54;5.63;;;3.88;;
60076;SDS011;45950;45.208;20.374;2024-02-21T08:39:20;9.40;;;4.75;;
60076;SDS011;45950;45.208;20.374;2024-02-21T08:41:47;10.20;;;4.15;;
60076;SDS011;45950;45.208;20.374;2024-02-21T08:44:14;8.02;;;5.03;;
60076;SDS011;45950;45.208;20.374;2024-02-21T08:46:40;8.23;;;4.30;;
60076;SDS011;45950;45.208;20.374;2024-02-21T08:49:09;9.18;;;4.47;;
60076;SDS011;45950;45.208;20.374;2024-02-21T08:51:36;5.28;;;3.47;;
60076;SDS011;45950;45.208;20.374;2024-02-21T08:54:03;7.85;;;3.45;;
60076;SDS011;45950;45.208;20.374;2024-02-21T08:56:30;6.28;;;3.17;;
60076;SDS011;45950;45.208;20.374;2024-02-21T08:58:56;10.05;;;4.32;;
60076;SDS011;45950;45.208;20.374;2024-02-21T09:01:23;7.75;;;3.55;;
60076;SDS011;45950;45.208;20.374;2024-02-21T09:03:49;13.43;;;5.55;;
60076;SDS011;45950;45.208;20.374;2024-02-21T09:06:20;9.70;;;4.00;;
60076;SDS011;45950;45.208;20.374;2024-02-21T09:08:46;11.98;;;5.60;;
60076;SDS011;45950;45.208;20.374;2024-02-21T09:11:13;12.02;;;5.18;;
60076;SDS011;45950;45.208;20.374;2024-02-21T09:13:40;9.88;;;4.88;;
60076;SDS011;45950;45.208;20.374;2024-02-21T09:16:06;19.92;;;6.35;;
60076;SDS011;45950;45.208;20.374;2024-02-21T09:18:34;13.32;;;5.63;;
60076;SDS011;45950;45.208;20.374;2024-02-21T09:21:00;18.15;;;7.43;;
60076;SDS011;45950;45.208;20.374;2024-02-21T09:23:28;13.90;;;6.55;;
60076;SDS011;45950;45.208;20.374;2024-02-21T09:25:56;8.20;;;3.88;;
60076;SDS011;45950;45.208;20.374;2024-02-21T09:28:39;16.55;;;7.78;;
60076;SDS011;45950;45.208;20.374;2024-02-21T09:31:05;26.00;;;14.32;;
60076;SDS011;45950;45.208;20.374;2024-02-21T09:33:32;25.95;;;14.00;;
60076;SDS011;45950;45.208;20.374;2024-02-21T09:35:59;16.92;;;8.27;;
60076;SDS011;45950;45.208;20.374;2024-02-21T09:38:26;12.18;;;6.85;;
60076;SDS011;45950;45.208;20.374;2024-02-21T09:40:56;16.17;;;7.38;;
60076;SDS011;45950;45.208;20.374;2024-02-21T09:43:25;23.40;;;10.77;;
60076;SDS011;45950;45.208;20.374;2024-02-21T09:45:52;11.27;;;6.03;;
60076;SDS011;45950;45.208;20.374;2024-02-21T09:48:26;9.40;;;3.95;;
60076;SDS011;45950;45.208;20.374;2024-02-21T09:51:01;9.10;;;4.97;;
60076;SDS011;45950;45.208;20.374;2024-02-21T09:53:28;9.20;;;4.80;;
60076;SDS011;45950;45.208;20.374;2024-02-21T09:55:58;10.15;;;5.22;;
60076;SDS011;45950;45.208;20.374;2024-02-21T09:58:26;12.25;;;7.05;;
60076;SDS011;45950;45.208;20.374;2024-02-21T10:00:53;7.28;;;4.63;;
60076;SDS011;45950;45.208;20.374;2024-02-21T10:03:19;6.85;;;3.88;;
60076;SDS011;45950;45.208;20.374;2024-02-21T10:05:47;6.78;;;3.50;;
60076;SDS011;45950;45.208;20.374;2024-02-21T10:08:15;7.38;;;4.13;;
60076;SDS011;45950;45.208;20.374;2024-02-21T10:10:42;7.25;;;3.67;;
60076;SDS011;45950;45.208;20.374;2024-02-21T10:13:10;7.43;;;3.78;;
60076;SDS011;45950;45.208;20.374;2024-02-21T10:15:37;9.48;;;3.55;;
60076;SDS011;45950;45.208;20.374;2024-02-21T10:18:04;8.50;;;4.15;;
60076;SDS011;45950;45.208;20.374;2024-02-21T10:23:27;6.93;;;3.65;;
60076;SDS011;45950;45.208;20.374;2024-02-21T10:25:53;8.32;;;4.20;;
60076;SDS011;45950;45.208;20.374;2024-02-21T10:28:21;11.40;;;5.75;;
60076;SDS011;45950;45.208;20.374;2024-02-21T10:30:50;8.52;;;4.75;;
60076;SDS011;45950;45.208;20.374;2024-02-21T10:33:17;6.68;;;3.40;;
60076;SDS011;45950;45.208;20.374;2024-02-21T10:35:46;16.50;;;5.60;;
60076;SDS011;45950;45.208;20.374;2024-02-21T10:38:12;8.80;;;3.92;;
60076;SDS011;45950;45.208;20.374;2024-02-21T10:40:39;10.18;;;4.15;;
60076;SDS011;45950;45.208;20.374;2024-02-21T10:43:05;7.38;;;4.20;;
60076;SDS011;45950;45.208;20.374;2024-02-21T10:45:36;6.13;;;4.07;;
60076;SDS011;45950;45.208;20.374;2024-02-21T10:48:09;6.47;;;4.30;;
60076;SDS011;45950;45.208;20.374;2024-02-21T10:50:53;14.98;;;5.05;;
60076;SDS011;45950;45.208;20.374;2024-02-21T10:53:23;13.18;;;7.95;;
60076;SDS011;45950;45.208;20.374;2024-02-21T10:55:52;11.27;;;5.68;;
60076;SDS011;45950;45.208;20.374;2024-02-21T10:58:22;9.18;;;4.00;;
60076;SDS011;45950;45.208;20.374;2024-02-21T11:00:52;7.35;;;4.30;;
60076;SDS011;45950;45.208;20.374;2024-02-21T11:03:19;9.02;;;4.78;;
60076;SDS011;45950;45.208;20.374;2024-02-21T11:05:57;9.95;;;5.43;;
60076;SDS011;45950;45.208;20.374;2024-02-21T11:08:24;10.68;;;5.22;;
60076;SDS011;45950;45.208;20.374;2024-02-21T11:10:56;12.20;;;5.47;;
60076;SDS011;45950;45.208;20.374;2024-02-21T11:13:29;14.60;;;7.75;;
60076;SDS011;45950;45.208;20.374;2024-02-21T11:18:48;9.02;;;4.63;;
60076;SDS011;45950;45.208;20.374;2024-02-21T11:21:14;9.98;;;4.35;;
60076;SDS011;45950;45.208;20.374;2024-02-21T11:23:41;9.32;;;4.75;;
60076;SDS011;45950;45.208;20.374;2024-02-21T11:26:07;12.98;;;7.25;;
60076;SDS011;45950;45.208;20.374;2024-02-21T11:28:34;8.73;;;3.92;;
60076;SDS011;45950;45.208;20.374;2024-02-21T11:31:09;9.50;;;3.75;;
60076;SDS011;45950;45.208;20.374;2024-02-21T11:33:35;9.35;;;4.20;;
60076;SDS011;45950;45.208;20.374;2024-02-21T11:36:07;7.55;;;4.00;;
60076;SDS011;45950;45.208;20.374;2024-02-21T11:38:33;7.45;;;3.88;;
60076;SDS011;45950;45.208;20.374;2024-02-21T11:41:00;7.40;;;3.45;;
60076;SDS011;45950;45.208;20.374;2024-02-21T11:43:27;10.07;;;3.95;;
60076;SDS011;45950;45.208;20.374;2024-02-21T11:45:58;6.57;;;3.13;;
60076;SDS011;45950;45.208;20.374;2024-02-21T11:48:25;7.53;;;3.22;;
60076;SDS011;45950;45.208;20.374;2024-02-21T11:50:54;8.15;;;3.17;;
60076;SDS011;45950;45.208;20.374;2024-02-21T11:53:22;7.63;;;3.13;;
60076;SDS011;45950;45.208;20.374;2024-02-21T11:55:50;7.40;;;3.05;;
60076;SDS011;45950;45.208;20.374;2024-02-21T11:58:16;5.85;;;3.05;;
60076;SDS011;45950;45.208;20.374;2024-02-21T12:00:43;11.95;;;6.78;;
60076;SDS011;45950;45.208;20.374;2024-02-21T12:06:12;6.95;;;3.03;;
60076;SDS011;45950;45.208;20.374;2024-02-21T12:08:43;6.72;;;3.17;;
60076;SDS011;45950;45.208;20.374;2024-02-21T12:11:18;8.25;;;2.90;;
60076;SDS011;45950;45.208;20.374;2024-02-21T12:16:34;6.15;;;3.05;;
60076;SDS011;45950;45.208;20.374;2024-02-21T12:19:02;6.30;;;2.60;;
60076;SDS011;45950;45.208;20.374;2024-02-21T12:21:29;8.88;;;3.30;;
60076;SDS011;45950;45.208;20.374;2024-02-21T12:23:59;6.63;;;3.67;;
60076;SDS011;45950;45.208;20.374;2024-02-21T12:26:25;7.88;;;3.70;;
60076;SDS011;45950;45.208;20.374;2024-02-21T12:28:53;6.03;;;3.00;;
60076;SDS011;45950;45.208;20.374;2024-02-21T12:31:19;10.02;;;4.10;;
60076;SDS011;45950;45.208;20.374;2024-02-21T12:33:47;10.73;;;3.92;;
60076;SDS011;45950;45.208;20.374;2024-02-21T12:36:13;6.07;;;3.55;;
60076;SDS011;45950;45.208;20.374;2024-02-21T12:38:50;5.90;;;3.00;;
60076;SDS011;45950;45.208;20.374;2024-02-21T12:41:18;6.65;;;3.30;;
60076;SDS011;45950;45.208;20.374;2024-02-21T12:43:44;6.47;;;3.33;;
60076;SDS011;45950;45.208;20.374;2024-02-21T12:46:12;11.38;;;3.63;;
60076;SDS011;45950;45.208;20.374;2024-02-21T12:48:38;7.45;;;3.53;;
60076;SDS011;45950;45.208;20.374;2024-02-21T12:51:05;10.82;;;3.78;;
60076;SDS011;45950;45.208;20.374;2024-02-21T12:53:32;11.35;;;4.50;;
60076;SDS011;45950;45.208;20.374;2024-02-21T12:55:59;9.80;;;4.25;;
60076;SDS011;45950;45.208;20.374;2024-02-21T12:58:27;8.73;;;3.90;;
60076;SDS011;45950;45.208;20.374;2024-02-21T13:00:56;7.53;;;3.53;;
60076;SDS011;45950;45.208;20.374;2024-02-21T13:03:32;8.75;;;4.63;;
60076;SDS011;45950;45.208;20.374;2024-02-21T13:05:58;6.03;;;2.95;;
60076;SDS011;45950;45.208;20.374;2024-02-21T13:08:25;10.50;;;3.30;;
60076;SDS011;45950;45.208;20.374;2024-02-21T13:10:52;8.93;;;3.00;;
60076;SDS011;45950;45.208;20.374;2024-02-21T13:13:19;5.45;;;2.60;;
60076;SDS011;45950;45.208;20.374;2024-02-21T13:15:47;8.00;;;2.60;;
60076;SDS011;45950;45.208;20.374;2024-02-21T13:18:14;10.13;;;3.92;;
60076;SDS011;45950;45.208;20.374;2024-02-21T13:20:40;9.85;;;4.43;;
60076;SDS011;45950;45.208;20.374;2024-02-21T13:23:07;9.30;;;4.55;;
60076;SDS011;45950;45.208;20.374;2024-02-21T13:25:33;7.35;;;3.15;;
60076;SDS011;45950;45.208;20.374;2024-02-21T13:28:00;7.03;;;3.40;;
60076;SDS011;45950;45.208;20.374;2024-02-21T13:30:27;10.52;;;2.90;;
60076;SDS011;45950;45.208;20.374;2024-02-21T13:32:55;7.55;;;2.72;;
60076;SDS011;45950;45.208;20.374;2024-02-21T13:35:21;5.20;;;2.28;;
60076;SDS011;45950;45.208;20.374;2024-02-21T13:37:48;6.90;;;2.78;;
60076;SDS011;45950;45.208;20.374;2024-02-21T13:40:15;7.68;;;3.10;;
60076;SDS011;45950;45.208;20.374;2024-02-21T13:42:42;8.18;;;4.75;;
60076;SDS011;45950;45.208;20.374;2024-02-21T13:45:09;11.20;;;5.88;;
60076;SDS011;45950;45.208;20.374;2024-02-21T13:47:35;12.32;;;6.88;;
60076;SDS011;45950;45.208;20.374;2024-02-21T13:50:05;16.83;;;8.80;;
60076;SDS011;45950;45.208;20.374;2024-02-21T13:52:39;10.23;;;4.85;;
60076;SDS011;45950;45.208;20.374;2024-02-21T13:55:06;17.98;;;8.55;;
60076;SDS011;45950;45.208;20.374;2024-02-21T13:57:33;31.35;;;16.90;;
60076;SDS011;45950;45.208;20.374;2024-02-21T14:00:02;33.08;;;18.83;;
60076;SDS011;45950;45.208;20.374;2024-02-21T14:02:30;14.63;;;7.10;;
60076;SDS011;45950;45.208;20.374;2024-02-21T14:04:56;12.82;;;5.82;;
60076;SDS011;45950;45.208;20.374;2024-02-21T14:07:24;13.05;;;7.30;;
60076;SDS011;45950;45.208;20.374;2024-02-21T14:09:51;14.27;;;7.63;;
60076;SDS011;45950;45.208;20.374;2024-02-21T14:12:19;11.65;;;6.07;;
60076;SDS011;45950;45.208;20.374;2024-02-21T14:14:47;9.48;;;5.82;;
60076;SDS011;45950;45.208;20.374;2024-02-21T14:17:21;17.38;;;5.50;;
60076;SDS011;45950;45.208;20.374;2024-02-21T14:19:48;11.63;;;6.35;;
60076;SDS011;45950;45.208;20.374;2024-02-21T14:22:14;15.13;;;6.13;;
60076;SDS011;45950;45.208;20.374;2024-02-21T14:24:42;22.23;;;10.45;;
60076;SDS011;45950;45.208;20.374;2024-02-21T14:27:09;18.15;;;8.32;;
60076;SDS011;45950;45.208;20.374;2024-02-21T14:29:43;12.90;;;6.72;;
60076;SDS011;45950;45.208;20.374;2024-02-21T14:32:10;9.05;;;4.97;;
60076;SDS011;45950;45.208;20.374;2024-02-21T14:34:39;8.40;;;5.35;;
60076;SDS011;45950;45.208;20.374;2024-02-21T14:40:06;11.88;;;4.88;;
60076;SDS011;45950;45.208;20.374;2024-02-21T14:42:37;12.07;;;5.63;;
60076;SDS011;45950;45.208;20.374;2024-02-21T14:45:04;9.13;;;4.50;;
60076;SDS011;45950;45.208;20.374;2024-02-21T14:47:31;14.10;;;6.90;;
60076;SDS011;45950;45.208;20.374;2024-02-21T14:49:58;11.70;;;6.28;;
60076;SDS011;45950;45.208;20.374;2024-02-21T14:52:25;14.85;;;6.47;;
60076;SDS011;45950;45.208;20.374;2024-02-21T14:54:52;12.65;;;5.85;;
60076;SDS011;45950;45.208;20.374;2024-02-21T14:57:20;14.30;;;7.03;;
60076;SDS011;45950;45.208;20.374;2024-02-21T14:59:47;14.75;;;5.65;;
60076;SDS011;45950;45.208;20.374;2024-02-21T15:02:15;20.08;;;9.02;;